Time;durP1;ratioP1;P1;durP2;ratioP2;P2;SDS_P1;SDS_P2;PMS_P1;PMS_P2;Temp;Humidity;BMP_temperature;BMP_pressure;BME280_temperature;BME280_humidity;BME280_pressure;Samples;Min_cycle;Max_cycle;Signal;HPM_P1;HPM_P2
2022/01/17 00:01:32;;;;;;;3.85;1.10;;;;;;;;;;5043493;28;20048;-77
2022/01/17 00:03:58;;;;;;;14.07;1.42;;;;;;;;;;5062841;28;20048;-76
2022/01/17 00:06:24;;;;;;;6.97;1.67;;;;;;;;;;5061046;28;20524;-76
2022/01/17 00:08:50;;;;;;;7.90;1.90;;;;;;;;;;5045115;28;20507;-77
2022/01/17 00:11:16;;;;;;;4.63;1.42;;;;;;;;;;5043214;28;20036;-77
2022/01/17 00:13:43;;;;;;;11.88;1.35;;;;;;;;;;5061307;28;20044;-76
2022/01/17 00:16:13;;;;;;;7.55;1.58;;;;;;;;;;5061857;28;20085;-77
2022/01/17 00:19:04;;;;;;;12.43;1.93;;;;;;;;;;5060511;28;20592;-77
2022/01/17 00:21:25;;;;;;;9.82;1.15;;;;;;;;;;5061167;28;20041;-77
2022/01/17 00:23:51;;;;;;;9.50;1.33;;;;;;;;;;5043230;28;20048;-77
2022/01/17 00:26:17;;;;;;;5.97;1.42;;;;;;;;;;5060107;28;20118;-77
2022/01/17 00:28:43;;;;;;;10.35;1.40;;;;;;;;;;5061081;28;20051;-76
2022/01/17 00:31:09;;;;;;;10.73;1.45;;;;;;;;;;5058908;28;20064;-77
2022/01/17 00:33:35;;;;;;;5.63;1.50;;;;;;;;;;5044891;28;20435;-76
2022/01/17 00:36:01;;;;;;;6.97;1.15;;;;;;;;;;5043448;28;20037;-77
2022/01/17 00:38:28;;;;;;;7.65;1.60;;;;;;;;;;5060300;28;20041;-76
2022/01/17 00:40:54;;;;;;;9.10;1.80;;;;;;;;;;5061307;28;20127;-76
2022/01/17 00:43:20;;;;;;;10.77;1.40;;;;;;;;;;5059635;28;20132;-77
2022/01/17 00:45:46;;;;;;;12.35;1.83;;;;;;;;;;5060144;28;20047;-78
2022/01/17 00:48:12;;;;;;;7.63;1.17;;;;;;;;;;5044852;28;20029;-76
2022/01/17 00:50:39;;;;;;;14.82;1.33;;;;;;;;;;5044663;28;20029;-77
2022/01/17 00:53:09;;;;;;;8.80;1.17;;;;;;;;;;5060141;28;20047;-77
2022/01/17 00:55:36;;;;;;;6.83;1.53;;;;;;;;;;5059485;28;20037;-78
2022/01/17 00:58:02;;;;;;;8.25;1.50;;;;;;;;;;5060667;28;20042;-77
2022/01/17 01:00:28;;;;;;;8.10;1.80;;;;;;;;;;5043674;28;20052;-77
2022/01/17 01:02:55;;;;;;;11.88;1.45;;;;;;;;;;5059130;28;20425;-76
2022/01/17 01:05:21;;;;;;;12.13;1.40;;;;;;;;;;5043830;28;20545;-76
2022/01/17 01:07:47;;;;;;;8.57;1.50;;;;;;;;;;5043611;28;20040;-76
2022/01/17 01:10:13;;;;;;;8.88;1.70;;;;;;;;;;5059426;28;20045;-75
2022/01/17 01:12:48;;;;;;;6.03;1.10;;;;;;;;;;5060588;28;20044;-76
2022/01/17 01:15:19;;;;;;;9.50;1.52;;;;;;;;;;5060825;28;20558;-76
2022/01/17 01:17:51;;;;;;;12.50;1.73;;;;;;;;;;5060137;28;20048;-75
2022/01/17 01:28:30;;;;;;;8.63;1.17;;;;;;;;;;5050134;28;20041;-75
2022/01/17 01:30:58;;;;;;;7.75;2.28;;;;;;;;;;5033506;28;20460;-76
2022/01/17 01:33:34;;;;;;;11.07;1.98;;;;;;;;;;5050228;28;20056;-76
2022/01/17 01:36:05;;;;;;;11.82;1.27;;;;;;;;;;5033923;28;20048;-77
2022/01/17 01:38:31;;;;;;;;;;;;;;;;;;5050656;28;20045;-77
2022/01/17 01:40:57;;;;;;;5.68;0.93;;;;;;;;;;5049939;28;20343;-76
2022/01/17 01:43:23;;;;;;;11.90;1.83;;;;;;;;;;5053462;28;20044;-77
2022/01/17 01:45:56;;;;;;;8.35;1.67;;;;;;;;;;5037949;28;20037;-78
2022/01/17 01:48:22;;;;;;;6.53;1.38;;;;;;;;;;5037353;28;20411;-75
2022/01/17 01:50:48;;;;;;;9.52;1.35;;;;;;;;;;5053992;28;20040;-76
2022/01/17 01:53:14;;;;;;;9.18;1.10;;;;;;;;;;5037817;28;20183;-77
2022/01/17 01:55:40;;;;;;;4.70;1.15;;;;;;;;;;5054233;28;20083;-77
2022/01/17 01:58:06;;;;;;;10.40;1.38;;;;;;;;;;5054171;28;20040;-77
2022/01/17 02:00:32;;;;;;;8.43;1.17;;;;;;;;;;5054118;28;20049;-78
2022/01/17 02:02:58;;;;;;;3.20;0.90;;;;;;;;;;5037301;28;20071;-77
2022/01/17 02:05:25;;;;;;;8.27;2.03;;;;;;;;;;5053988;28;20043;-77
2022/01/17 02:07:51;;;;;;;8.57;1.33;;;;;;;;;;5045470;28;20037;-77
2022/01/17 02:10:17;;;;;;;8.95;1.02;;;;;;;;;;5047368;28;20036;-78
2022/01/17 02:12:43;;;;;;;7.90;1.45;;;;;;;;;;5063343;28;20554;-76
2022/01/17 02:15:13;;;;;;;8.13;1.60;;;;;;;;;;5045710;28;20089;-78
2022/01/17 02:17:45;;;;;;;18.00;1.67;;;;;;;;;;5062677;28;20037;-76
2022/01/17 02:20:16;;;;;;;10.35;1.50;;;;;;;;;;5062430;28;20037;-76
2022/01/17 02:22:42;;;;;;;5.88;1.20;;;;;;;;;;5046661;28;20462;-76
2022/01/17 02:25:08;;;;;;;5.95;1.38;;;;;;;;;;5064037;28;20029;-75
2022/01/17 02:27:34;;;;;;;6.88;1.33;;;;;;;;;;5062110;28;20115;-77
2022/01/17 02:30:00;;;;;;;10.43;1.35;;;;;;;;;;5046684;28;20033;-77
2022/01/17 02:32:26;;;;;;;10.57;1.77;;;;;;;;;;5063976;28;20660;-77
2022/01/17 02:35:10;;;;;;;5.32;1.35;;;;;;;;;;5045430;28;20041;-77
2022/01/17 02:37:36;;;;;;;4.60;0.90;;;;;;;;;;5056546;28;20501;-78
2022/01/17 02:40:02;;;;;;;9.75;1.50;;;;;;;;;;5037349;28;20040;-78
2022/01/17 02:42:28;;;;;;;9.15;1.00;;;;;;;;;;5037017;28;20398;-79
2022/01/17 02:44:59;;;;;;;7.80;2.00;;;;;;;;;;5053422;28;20044;-79
2022/01/17 02:47:26;;;;;;;11.43;1.20;;;;;;;;;;5037076;28;20036;-77
2022/01/17 02:49:52;;;;;;;5.40;1.40;;;;;;;;;;5053257;28;20044;-78
2022/01/17 02:52:23;;;;;;;11.13;1.50;;;;;;;;;;5053653;28;20393;-77
2022/01/17 02:54:49;;;;;;;6.97;0.90;;;;;;;;;;5036650;28;20052;-79
2022/01/17 02:57:15;;;;;;;10.77;2.28;;;;;;;;;;5036461;28;20137;-76
2022/01/17 02:59:40;;;;;;;6.10;2.17;;;;;;;;;;5036597;28;20132;-76
2022/01/17 03:02:06;;;;;;;7.75;1.35;;;;;;;;;;5036194;28;20057;-81
2022/01/17 03:04:33;;;;;;;12.10;1.40;;;;;;;;;;5036361;28;20083;-80
2022/01/17 03:06:59;;;;;;;9.45;1.42;;;;;;;;;;5036367;28;20401;-76
2022/01/17 03:09:28;;;;;;;13.63;1.85;;;;;;;;;;5052834;28;20128;-78
2022/01/17 03:11:54;;;;;;;18.25;1.98;;;;;;;;;;5053074;28;20044;-82
2022/01/17 03:14:20;;;;;;;14.93;2.20;;;;;;;;;;5036286;28;20131;-78
2022/01/17 03:16:48;;;;;;;6.57;1.17;;;;;;;;;;5052822;28;20044;-75
2022/01/17 03:19:14;;;;;;;8.98;1.38;;;;;;;;;;5052786;28;20438;-79
2022/01/17 03:21:40;;;;;;;12.15;1.92;;;;;;;;;;5053066;28;20037;-78
2022/01/17 03:24:07;;;;;;;7.07;1.02;;;;;;;;;;5036394;28;20041;-78
2022/01/17 03:26:33;;;;;;;4.25;1.20;;;;;;;;;;5035848;28;20037;-78
2022/01/17 03:29:03;;;;;;;9.23;1.50;;;;;;;;;;5052916;28;20493;-77
2022/01/17 03:31:29;;;;;;;12.45;2.13;;;;;;;;;;5036023;28;20040;-78
2022/01/17 03:33:55;;;;;;;10.35;1.27;;;;;;;;;;5052804;28;20489;-77
2022/01/17 03:36:21;;;;;;;7.30;1.35;;;;;;;;;;5052383;28;20037;-79
2022/01/17 03:38:47;;;;;;;8.13;1.15;;;;;;;;;;5052351;28;20037;-76
2022/01/17 03:41:14;;;;;;;7.18;1.40;;;;;;;;;;5052332;28;20068;-78
2022/01/17 03:43:40;;;;;;;10.25;1.77;;;;;;;;;;5052391;28;20047;-77
2022/01/17 03:46:06;;;;;;;8.00;1.58;;;;;;;;;;5035619;28;20487;-78
2022/01/17 03:48:33;;;;;;;6.53;1.38;;;;;;;;;;5035838;28;20037;-76
2022/01/17 03:51:00;;;;;;;18.17;1.77;;;;;;;;;;5035421;28;20517;-78
2022/01/17 03:53:26;;;;;;;10.73;1.20;;;;;;;;;;5035606;28;20094;-74
2022/01/17 03:55:53;;;;;;;13.63;1.55;;;;;;;;;;5036094;28;20037;-77
2022/01/17 03:58:19;;;;;;;4.65;1.20;;;;;;;;;;5052370;28;20040;-78
2022/01/17 04:00:49;;;;;;;11.93;1.73;;;;;;;;;;5051961;28;20057;-78
2022/01/17 04:03:16;;;;;;;10.82;0.90;;;;;;;;;;5052521;28;20084;-79
2022/01/17 04:05:42;;;;;;;8.38;1.33;;;;;;;;;;5018770;28;20041;-78
2022/01/17 04:08:08;;;;;;;8.85;1.20;;;;;;;;;;5035181;28;20090;-77
2022/01/17 04:10:35;;;;;;;12.73;1.45;;;;;;;;;;5051814;28;20040;-78
2022/01/17 04:13:04;;;;;;;6.43;1.30;;;;;;;;;;5051595;28;20041;-82
2022/01/17 04:15:35;;;;;;;7.15;1.42;;;;;;;;;;5048568;28;20053;-77
2022/01/17 04:18:01;;;;;;;;;;;;;;;;;;5048562;28;20413;-78
2022/01/17 04:20:28;;;;;;;9.32;1.77;;;;;;;;;;5031570;28;19916;-78
2022/01/17 04:23:06;;;;;;;7.82;1.58;;;;;;;;;;5048399;28;20492;-79
2022/01/17 04:25:33;;;;;;;10.98;1.80;;;;;;;;;;5048770;28;20048;-77
2022/01/17 04:28:00;;;;;;;6.50;1.40;;;;;;;;;;5031400;28;20053;-79
2022/01/17 04:30:27;;;;;;;5.20;1.05;;;;;;;;;;5048221;28;20051;-76
2022/01/17 04:32:53;;;;;;;8.57;1.15;;;;;;;;;;5047816;28;20076;-76
2022/01/17 04:35:21;;;;;;;6.32;1.25;;;;;;;;;;5047982;28;20106;-77
2022/01/17 04:37:48;;;;;;;11.07;1.35;;;;;;;;;;5047819;28;20516;-78
2022/01/17 04:40:14;;;;;;;8.20;1.45;;;;;;;;;;5031532;28;20080;-83
2022/01/17 04:42:45;;;;;;;10.05;1.63;;;;;;;;;;5031719;28;20037;-77
2022/01/17 04:45:11;;;;;;;8.27;1.35;;;;;;;;;;5047678;28;20047;-77
2022/01/17 04:47:38;;;;;;;11.95;1.25;;;;;;;;;;5031449;28;20045;-78
2022/01/17 04:50:05;;;;;;;8.18;1.45;;;;;;;;;;5047622;28;20461;-76
2022/01/17 04:52:31;;;;;;;8.05;1.30;;;;;;;;;;5030533;28;20095;-79
2022/01/17 04:55:01;;;;;;;7.18;1.52;;;;;;;;;;5030981;28;20052;-77
2022/01/17 04:57:27;;;;;;;8.57;1.30;;;;;;;;;;5047413;28;20592;-77
2022/01/17 04:59:53;;;;;;;4.53;1.80;;;;;;;;;;5030584;28;20041;-78
2022/01/17 05:02:19;;;;;;;12.43;1.83;;;;;;;;;;5030752;28;20599;-78
2022/01/17 05:04:45;;;;;;;6.05;1.40;;;;;;;;;;5030775;28;20724;-76
2022/01/17 05:07:11;;;;;;;8.38;1.30;;;;;;;;;;5030047;28;20075;-77
2022/01/17 05:09:39;;;;;;;13.00;2.33;;;;;;;;;;5050224;28;20497;-75
2022/01/17 05:12:06;;;;;;;7.78;0.98;;;;;;;;;;5034037;28;20037;-78
2022/01/17 05:14:32;;;;;;;6.68;1.48;;;;;;;;;;5034310;28;20040;-77
2022/01/17 05:17:05;;;;;;;10.27;2.55;;;;;;;;;;5033505;28;20067;-75
2022/01/17 05:19:49;;;;;;;4.45;1.25;;;;;;;;;;5050592;28;20079;-81
2022/01/17 05:22:26;;;;;;;7.43;1.25;;;;;;;;;;5050458;28;20049;-77
2022/01/17 05:24:52;;;;;;;8.45;1.20;;;;;;;;;;5033775;28;20037;-76
2022/01/17 05:27:18;;;;;;;7.63;2.10;;;;;;;;;;5050774;28;20052;-76
2022/01/17 05:29:46;;;;;;;3.88;1.00;;;;;;;;;;5033889;28;20037;-76
2022/01/17 05:32:11;;;;;;;12.02;2.08;;;;;;;;;;5050240;28;20041;-77
2022/01/17 05:34:41;;;;;;;10.13;1.60;;;;;;;;;;5050748;28;20422;-77
2022/01/17 05:37:08;;;;;;;5.15;1.48;;;;;;;;;;5050391;28;20048;-75
2022/01/17 05:39:34;;;;;;;9.95;1.73;;;;;;;;;;5050647;28;20125;-77
2022/01/17 05:42:00;;;;;;;6.65;1.42;;;;;;;;;;5050527;28;20063;-80
2022/01/17 05:44:26;;;;;;;8.48;1.85;;;;;;;;;;5034357;28;20170;-75
2022/01/17 05:46:52;;;;;;;6.55;1.23;;;;;;;;;;5049874;28;20047;-78
2022/01/17 05:49:18;;;;;;;7.55;2.03;;;;;;;;;;5033626;28;20501;-77
2022/01/17 05:51:44;;;;;;;10.82;1.80;;;;;;;;;;5050267;28;20067;-80
2022/01/17 05:54:10;;;;;;;7.65;1.98;;;;;;;;;;5033950;28;20049;-78
2022/01/17 05:56:36;;;;;;;10.23;2.05;;;;;;;;;;5050808;28;20130;-78
2022/01/17 05:59:02;;;;;;;11.32;1.83;;;;;;;;;;5050488;28;20098;-77
2022/01/17 06:01:28;;;;;;;12.93;2.03;;;;;;;;;;5033797;28;20065;-77
2022/01/17 06:03:54;;;;;;;10.95;1.85;;;;;;;;;;5050092;28;20063;-79
2022/01/17 06:06:20;;;;;;;14.05;1.85;;;;;;;;;;5050441;28;20037;-78
2022/01/17 06:08:47;;;;;;;9.27;1.88;;;;;;;;;;5033793;28;20037;-77
2022/01/17 06:11:13;;;;;;;4.97;1.73;;;;;;;;;;5033736;28;20064;-75
2022/01/17 06:13:39;;;;;;;5.88;1.63;;;;;;;;;;5050151;28;20083;-77
2022/01/17 06:16:05;;;;;;;12.63;2.35;;;;;;;;;;5033787;28;20075;-77
2022/01/17 06:18:31;;;;;;;10.60;2.33;;;;;;;;;;5033429;28;20136;-80
2022/01/17 06:20:57;;;;;;;10.30;2.30;;;;;;;;;;5033755;28;20041;-77
2022/01/17 06:23:25;;;;;;;12.60;2.17;;;;;;;;;;5033239;28;20056;-77
2022/01/17 06:25:51;;;;;;;11.77;2.30;;;;;;;;;;5033656;28;20033;-79
2022/01/17 06:28:17;;;;;;;14.18;2.53;;;;;;;;;;5034606;28;20033;-77
2022/01/17 06:30:43;;;;;;;9.35;1.95;;;;;;;;;;5054121;28;20397;-76
2022/01/17 06:33:09;;;;;;;10.85;2.30;;;;;;;;;;5054093;28;20055;-77
2022/01/17 06:35:35;;;;;;;10.48;2.05;;;;;;;;;;5053964;28;20373;-80
2022/01/17 06:38:02;;;;;;;11.75;2.10;;;;;;;;;;5037596;28;20048;-78
2022/01/17 06:40:29;;;;;;;7.70;2.85;;;;;;;;;;5053996;28;20138;-78
2022/01/17 06:42:55;;;;;;;10.48;2.17;;;;;;;;;;5037438;28;20493;-77
2022/01/17 06:45:21;;;;;;;15.02;1.95;;;;;;;;;;5036767;28;20128;-77
2022/01/17 06:47:47;;;;;;;10.98;2.50;;;;;;;;;;5037205;28;20080;-75
2022/01/17 06:50:13;;;;;;;15.80;2.38;;;;;;;;;;5054284;28;20102;-76
2022/01/17 06:52:39;;;;;;;13.57;2.63;;;;;;;;;;5037433;28;20520;-76
2022/01/17 06:55:07;;;;;;;15.20;2.72;;;;;;;;;;5054281;28;20040;-78
2022/01/17 06:57:33;;;;;;;12.73;2.22;;;;;;;;;;5036903;28;20386;-78
2022/01/17 06:59:59;;;;;;;10.07;2.40;;;;;;;;;;5036429;28;20103;-81
2022/01/17 07:02:25;;;;;;;15.75;3.45;;;;;;;;;;5052996;28;20053;-79
2022/01/17 07:04:51;;;;;;;18.30;3.22;;;;;;;;;;5052911;28;20044;-77
2022/01/17 07:07:19;;;;;;;7.65;2.22;;;;;;;;;;5053574;28;20485;-76
2022/01/17 07:09:45;;;;;;;9.73;2.55;;;;;;;;;;5053274;28;20045;-77
2022/01/17 07:12:11;;;;;;;11.27;3.28;;;;;;;;;;5036618;28;20124;-82
2022/01/17 07:14:41;;;;;;;11.40;2.33;;;;;;;;;;5053343;28;20091;-77
2022/01/17 07:17:08;;;;;;;13.07;2.33;;;;;;;;;;5037197;28;20077;-78
2022/01/17 07:19:34;;;;;;;5.53;2.10;;;;;;;;;;5053358;28;20033;-79
2022/01/17 07:22:00;;;;;;;8.85;3.90;;;;;;;;;;5052679;28;20123;-77
2022/01/17 07:24:26;;;;;;;14.38;2.97;;;;;;;;;;5036616;28;20179;-77
2022/01/17 07:26:52;;;;;;;17.17;2.92;;;;;;;;;;5036426;28;20041;-81
2022/01/17 07:29:18;;;;;;;11.32;1.95;;;;;;;;;;5036941;28;20045;-77
2022/01/17 07:31:44;;;;;;;15.40;2.55;;;;;;;;;;5052588;28;20044;-79
2022/01/17 07:34:11;;;;;;;10.05;2.22;;;;;;;;;;5052788;28;20037;-78
2022/01/17 07:36:37;;;;;;;12.57;2.85;;;;;;;;;;5052669;28;20041;-75
2022/01/17 07:39:03;;;;;;;14.95;2.25;;;;;;;;;;5035254;28;20043;-77
2022/01/17 07:41:29;;;;;;;11.48;2.08;;;;;;;;;;5035391;28;20087;-76
2022/01/17 07:43:55;;;;;;;18.00;2.35;;;;;;;;;;5035875;28;20497;-77
2022/01/17 07:46:47;;;;;;;11.27;2.50;;;;;;;;;;5052549;28;20040;-78
2022/01/17 07:49:19;;;;;;;8.73;2.75;;;;;;;;;;5035758;28;20037;-79
2022/01/17 07:51:46;;;;;;;7.22;2.28;;;;;;;;;;5035837;28;20120;-76
2022/01/17 07:54:14;;;;;;;11.48;3.42;;;;;;;;;;5052411;28;20052;-80
2022/01/17 07:56:41;;;;;;;14.25;2.67;;;;;;;;;;5052283;28;20099;-78
2022/01/17 07:59:07;;;;;;;11.75;2.03;;;;;;;;;;5052823;28;20048;-77
2022/01/17 08:01:33;;;;;;;8.63;1.90;;;;;;;;;;5050318;28;20096;-78
2022/01/17 08:04:00;;;;;;;13.90;2.47;;;;;;;;;;5033463;28;20115;-78
2022/01/17 08:06:26;;;;;;;7.97;2.10;;;;;;;;;;5032843;28;20425;-78
2022/01/17 08:08:52;;;;;;;15.93;2.45;;;;;;;;;;5031658;28;20041;-77
2022/01/17 08:11:18;;;;;;;9.48;2.17;;;;;;;;;;5048742;28;20045;-79
2022/01/17 08:13:45;;;;;;;14.35;2.40;;;;;;;;;;5048464;28;20148;-79
2022/01/17 08:16:11;;;;;;;13.90;3.22;;;;;;;;;;5031376;28;20416;-77
2022/01/17 08:18:37;;;;;;;14.48;3.17;;;;;;;;;;5048242;28;20045;-77
2022/01/17 08:21:04;;;;;;;17.75;2.72;;;;;;;;;;5048621;28;20047;-79
2022/01/17 08:23:30;;;;;;;21.50;2.55;;;;;;;;;;5047822;28;20055;-80
2022/01/17 08:25:56;;;;;;;13.13;2.47;;;;;;;;;;5031487;28;20037;-79
2022/01/17 08:28:22;;;;;;;15.93;3.53;;;;;;;;;;5048264;28;20469;-76
2022/01/17 08:30:48;;;;;;;13.80;2.58;;;;;;;;;;5047750;28;20366;-77
2022/01/17 08:33:14;;;;;;;14.50;2.45;;;;;;;;;;5048052;28;20106;-78
2022/01/17 08:35:40;;;;;;;13.55;2.13;;;;;;;;;;5047677;28;20057;-77
2022/01/17 08:38:07;;;;;;;16.90;2.25;;;;;;;;;;5047709;28;20057;-78
2022/01/17 08:40:33;;;;;;;21.38;3.25;;;;;;;;;;5031719;28;20040;-76
2022/01/17 08:42:59;;;;;;;16.58;2.38;;;;;;;;;;5030678;28;20056;-80
2022/01/17 08:45:26;;;;;;;16.92;2.70;;;;;;;;;;5048296;28;20460;-77
2022/01/17 08:47:52;;;;;;;11.20;2.35;;;;;;;;;;5031759;28;20044;-78
2022/01/17 08:50:22;;;;;;;18.05;2.25;;;;;;;;;;5048654;28;20409;-78
2022/01/17 08:52:48;;;;;;;24.08;3.38;;;;;;;;;;5031374;28;20094;-80
2022/01/17 08:55:15;;;;;;;15.77;2.30;;;;;;;;;;5031038;28;20122;-78
2022/01/17 08:57:41;;;;;;;18.42;2.58;;;;;;;;;;5031128;28;20049;-76
2022/01/17 09:00:09;;;;;;;16.95;2.00;;;;;;;;;;5048158;28;20421;-76
2022/01/17 09:02:36;;;;;;;16.17;1.77;;;;;;;;;;5031535;28;20132;-80
2022/01/17 09:05:02;;;;;;;18.80;2.22;;;;;;;;;;5032177;28;20656;-76
2022/01/17 09:07:28;;;;;;;13.10;1.95;;;;;;;;;;5048026;28;20110;-77
2022/01/17 09:09:54;;;;;;;18.77;2.60;;;;;;;;;;5048105;28;20037;-76
2022/01/17 09:12:20;;;;;;;17.30;3.00;;;;;;;;;;5048283;28;20554;-77
2022/01/17 09:14:46;;;;;;;10.38;2.00;;;;;;;;;;5031058;28;20079;-74
2022/01/17 09:17:12;;;;;;;13.48;1.92;;;;;;;;;;5031215;28;20044;-79
2022/01/17 09:19:39;;;;;;;15.43;2.15;;;;;;;;;;5031306;28;20041;-76
2022/01/17 09:22:06;;;;;;;12.80;1.60;;;;;;;;;;5047851;28;20037;-76
2022/01/17 09:24:33;;;;;;;17.52;3.05;;;;;;;;;;5030867;28;20041;-77
2022/01/17 09:26:58;;;;;;;18.45;2.22;;;;;;;;;;5047752;28;20041;-77
2022/01/17 09:29:24;;;;;;;15.32;2.53;;;;;;;;;;5030716;28;20041;-78
2022/01/17 09:31:51;;;;;;;11.25;2.40;;;;;;;;;;5047425;28;20047;-72
2022/01/17 09:34:16;;;;;;;11.93;2.08;;;;;;;;;;5057768;28;20075;-76
2022/01/17 09:36:43;;;;;;;17.55;3.28;;;;;;;;;;5056011;28;20055;-77
2022/01/17 09:39:09;;;;;;;15.05;2.10;;;;;;;;;;5056712;28;20049;-79
2022/01/17 09:41:36;;;;;;;11.48;3.35;;;;;;;;;;5054890;28;20044;-80
2022/01/17 09:44:04;;;;;;;18.48;2.78;;;;;;;;;;5040481;28;20079;-78
2022/01/17 09:46:35;;;;;;;11.90;1.85;;;;;;;;;;5056446;28;20480;-77
2022/01/17 09:49:13;;;;;;;19.98;2.33;;;;;;;;;;5039977;28;20040;-83
2022/01/17 09:52:03;;;;;;;14.35;2.58;;;;;;;;;;5056466;28;20393;-74
2022/01/17 09:54:30;;;;;;;15.23;2.67;;;;;;;;;;5057477;28;20360;-78
2022/01/17 09:56:56;;;;;;;15.52;2.40;;;;;;;;;;5040113;28;20044;-78
2022/01/17 09:59:22;;;;;;;16.85;2.42;;;;;;;;;;5054694;28;20032;-77
2022/01/17 10:01:48;;;;;;;19.45;3.00;;;;;;;;;;5041332;28;20144;-78
2022/01/17 10:04:16;;;;;;;11.55;2.15;;;;;;;;;;5059375;28;20080;-77
2022/01/17 10:06:42;;;;;;;19.17;2.90;;;;;;;;;;5059786;28;20040;-80
2022/01/17 10:09:21;;;;;;;11.43;2.17;;;;;;;;;;5061258;28;20280;-74
2022/01/17 10:12:06;;;;;;;16.00;2.78;;;;;;;;;;5064042;28;20079;-75
2022/01/17 10:14:36;;;;;;;13.02;2.65;;;;;;;;;;5061265;28;20040;-75
2022/01/17 10:17:06;;;;;;;15.63;3.03;;;;;;;;;;5041801;28;20036;-76
2022/01/17 10:19:32;;;;;;;17.25;2.78;;;;;;;;;;5059965;28;20040;-80
2022/01/17 10:22:00;;;;;;;17.05;3.22;;;;;;;;;;5042884;28;21121;-74
2022/01/17 10:24:53;;;;;;;17.00;2.47;;;;;;;;;;5058339;28;20068;-77
2022/01/17 10:35:28;;;;;;;22.75;4.50;;;;;;;;;;5056027;28;20388;-78
2022/01/17 10:37:55;;;;;;;32.45;3.72;;;;;;;;;;5034975;28;20405;-78
2022/01/17 10:40:21;;;;;;;20.60;4.13;;;;;;;;;;5035163;28;20120;-78
2022/01/17 10:42:49;;;;;;;21.73;3.10;;;;;;;;;;5051050;28;20083;-74
2022/01/17 10:45:24;;;;;;;17.20;3.13;;;;;;;;;;5048442;28;20051;-79
2022/01/17 10:47:51;;;;;;;18.23;3.10;;;;;;;;;;5037152;28;20056;-80
2022/01/17 10:50:19;;;;;;;17.08;2.97;;;;;;;;;;5056834;28;20040;-75
2022/01/17 10:52:47;;;;;;;20.50;3.25;;;;;;;;;;5051139;28;20044;-79
2022/01/17 10:55:15;;;;;;;16.42;2.90;;;;;;;;;;5057963;28;20048;-80
2022/01/17 10:57:43;;;;;;;18.20;2.90;;;;;;;;;;5067128;28;20119;-80
2022/01/17 11:00:11;;;;;;;25.75;3.45;;;;;;;;;;5046112;28;20154;-76
2022/01/17 11:02:39;;;;;;;13.40;3.25;;;;;;;;;;5058696;28;20044;-80
2022/01/17 11:05:06;;;;;;;15.07;2.50;;;;;;;;;;5059012;28;20044;-78
2022/01/17 11:07:37;;;;;;;17.08;3.30;;;;;;;;;;5042885;28;20469;-78
2022/01/17 11:10:07;;;;;;;;;;;;;;;;;;5058728;28;20098;-78
2022/01/17 11:12:34;;;;;;;16.63;3.47;;;;;;;;;;5042706;28;20433;-78
2022/01/17 11:15:01;;;;;;;29.98;4.25;;;;;;;;;;5040187;28;20075;-78
2022/01/17 11:17:38;;;;;;;17.88;2.80;;;;;;;;;;5044245;28;20558;-77
2022/01/17 11:20:08;;;;;;;15.98;3.00;;;;;;;;;;5059799;28;20045;-76
2022/01/17 11:22:35;;;;;;;20.65;4.43;;;;;;;;;;5042558;28;20171;-78
2022/01/17 11:25:02;;;;;;;28.98;4.22;;;;;;;;;;5040760;28;20048;-76
2022/01/17 11:27:28;;;;;;;15.82;3.22;;;;;;;;;;5042023;28;20036;-80
2022/01/17 11:29:55;;;;;;;19.00;3.67;;;;;;;;;;5040603;28;20579;-78
2022/01/17 11:32:22;;;;;;;12.02;2.75;;;;;;;;;;5057363;28;20033;-74
2022/01/17 11:34:49;;;;;;;22.00;3.42;;;;;;;;;;5043998;28;20396;-78
2022/01/17 11:37:15;;;;;;;18.13;3.42;;;;;;;;;;5058262;28;20417;-76
2022/01/17 11:39:59;;;;;;;18.65;4.00;;;;;;;;;;5057229;28;20044;-79
2022/01/17 11:42:28;;;;;;;30.27;6.03;;;;;;;;;;5043475;28;20396;-73
2022/01/17 11:44:54;;;;;;;33.70;5.80;;;;;;;;;;5056828;28;20055;-76
2022/01/17 11:47:39;;;;;;;37.03;6.05;;;;;;;;;;5044343;28;20303;-77
2022/01/17 11:50:24;;;;;;;27.27;5.30;;;;;;;;;;5059450;28;20075;-73
2022/01/17 11:52:50;;;;;;;32.20;3.83;;;;;;;;;;5059220;28;20067;-77
2022/01/17 11:55:35;;;;;;;23.85;4.00;;;;;;;;;;5042653;28;20051;-80
2022/01/17 11:58:26;;;;;;;27.25;6.32;;;;;;;;;;5059077;28;20037;-75
2022/01/17 12:01:01;;;;;;;19.80;3.95;;;;;;;;;;5057397;28;20059;-79
2022/01/17 12:03:30;;;;;;;22.70;4.10;;;;;;;;;;5043774;28;20053;-78
2022/01/17 12:06:01;;;;;;;21.98;4.30;;;;;;;;;;5043803;28;20048;-75
2022/01/17 12:08:27;;;;;;;23.92;3.80;;;;;;;;;;5039550;28;20492;-77
2022/01/17 12:10:57;;;;;;;20.30;3.90;;;;;;;;;;5041881;28;20040;-77
2022/01/17 12:13:34;;;;;;;17.63;4.88;;;;;;;;;;5058832;28;20099;-74
2022/01/17 12:16:21;;;;;;;18.10;4.00;;;;;;;;;;5056124;28;20048;-77
2022/01/17 12:18:48;;;;;;;34.53;3.65;;;;;;;;;;5037587;28;20033;-78
2022/01/17 12:21:17;;;;;;;20.95;3.53;;;;;;;;;;5051116;28;20037;-76
2022/01/17 12:23:43;;;;;;;17.88;3.92;;;;;;;;;;5034738;28;20044;-78
2022/01/17 12:26:32;;;;;;;21.90;3.58;;;;;;;;;;5050918;28;20041;-79
2022/01/17 12:28:59;;;;;;;23.08;3.92;;;;;;;;;;5054067;28;20033;-76
2022/01/17 12:31:58;;;;;;;20.05;3.38;;;;;;;;;;5051737;28;20465;-75
2022/01/17 12:34:25;;;;;;;24.02;3.55;;;;;;;;;;5024746;28;20596;-79
2022/01/17 12:36:52;;;;;;;22.33;4.07;;;;;;;;;;5051802;28;20045;-77
2022/01/17 12:39:22;;;;;;;16.35;3.20;;;;;;;;;;5055940;28;20071;-76
2022/01/17 12:41:49;;;;;;;15.30;3.85;;;;;;;;;;5063425;28;20047;-74
2022/01/17 12:44:20;;;;;;;24.02;4.25;;;;;;;;;;5047097;28;20090;-76
2022/01/17 12:46:47;;;;;;;25.98;4.07;;;;;;;;;;5044540;28;20746;-78
2022/01/17 12:49:14;;;;;;;22.40;3.80;;;;;;;;;;5058709;28;20086;-80
2022/01/17 12:51:41;;;;;;;17.10;3.33;;;;;;;;;;5043883;28;20581;-75
2022/01/17 12:54:16;;;;;;;26.80;4.68;;;;;;;;;;5057055;28;20041;-75
2022/01/17 12:56:43;;;;;;;27.30;5.43;;;;;;;;;;5057600;28;20052;-76
2022/01/17 12:59:09;;;;;;;25.25;4.38;;;;;;;;;;5041978;28;20131;-75
2022/01/17 13:01:36;;;;;;;18.33;3.00;;;;;;;;;;5058753;28;20519;-77
2022/01/17 13:04:06;;;;;;;24.02;3.67;;;;;;;;;;5040249;28;20045;-74
2022/01/17 13:06:32;;;;;;;27.83;5.25;;;;;;;;;;5057878;28;20037;-75
2022/01/17 13:08:59;;;;;;;19.58;4.18;;;;;;;;;;5062855;28;20139;-76
2022/01/17 13:11:26;;;;;;;21.77;4.72;;;;;;;;;;5041591;28;20036;-78
2022/01/17 13:13:53;;;;;;;20.13;3.53;;;;;;;;;;5057107;28;20047;-76
2022/01/17 13:16:22;;;;;;;30.55;3.78;;;;;;;;;;5066468;28;20048;-75
2022/01/17 13:18:49;;;;;;;26.38;4.57;;;;;;;;;;5066491;28;20086;-78
2022/01/17 13:21:15;;;;;;;13.60;3.05;;;;;;;;;;5051880;28;20037;-79
2022/01/17 13:23:55;;;;;;;20.80;3.70;;;;;;;;;;5040128;28;20051;-80
2022/01/17 13:26:34;;;;;;;25.73;4.20;;;;;;;;;;5051963;28;20044;-80
2022/01/17 13:29:00;;;;;;;19.00;3.80;;;;;;;;;;5060356;28;20032;-77
2022/01/17 13:31:28;;;;;;;22.70;3.83;;;;;;;;;;5039381;28;20060;-78
2022/01/17 13:33:54;;;;;;;14.18;3.13;;;;;;;;;;5062383;28;20090;-74
2022/01/17 13:36:27;;;;;;;20.35;3.35;;;;;;;;;;5038991;28;20046;-75
2022/01/17 13:39:08;;;;;;;27.52;3.75;;;;;;;;;;5050826;28;20040;-76
2022/01/17 13:41:35;;;;;;;26.23;3.17;;;;;;;;;;5058925;28;20051;-75
2022/01/17 13:44:01;;;;;;;17.67;3.75;;;;;;;;;;5050633;28;20075;-76
2022/01/17 13:46:27;;;;;;;19.63;3.25;;;;;;;;;;5058550;28;20040;-78
2022/01/17 13:48:53;;;;;;;16.92;3.92;;;;;;;;;;5056494;28;20040;-75
2022/01/17 13:51:24;;;;;;;11.75;3.50;;;;;;;;;;5060409;28;20037;-75
2022/01/17 13:53:53;;;;;;;17.20;3.78;;;;;;;;;;5045235;28;20135;-73
2022/01/17 13:56:18;;;;;;;21.00;3.60;;;;;;;;;;5061336;28;20048;-77
2022/01/17 13:58:46;;;;;;;14.20;3.90;;;;;;;;;;5059257;28;20037;-75
2022/01/17 14:01:15;;;;;;;19.27;4.25;;;;;;;;;;5042110;28;20113;-76
2022/01/17 14:03:43;;;;;;;28.02;4.28;;;;;;;;;;5061697;28;20052;-75
2022/01/17 14:06:10;;;;;;;21.15;4.00;;;;;;;;;;5061200;28;20067;-74
2022/01/17 14:08:48;;;;;;;37.75;5.15;;;;;;;;;;5041582;28;20033;-74
2022/01/17 14:11:15;;;;;;;20.33;3.40;;;;;;;;;;5057532;28;20029;-78
2022/01/17 14:14:01;;;;;;;20.40;2.85;;;;;;;;;;5058979;28;20505;-73
2022/01/17 14:16:33;;;;;;;19.58;3.40;;;;;;;;;;5058700;28;20489;-76
2022/01/17 14:19:00;;;;;;;17.42;2.95;;;;;;;;;;5059565;28;20055;-76
2022/01/17 14:21:29;;;;;;;20.48;3.35;;;;;;;;;;5061227;28;20047;-74
2022/01/17 14:24:04;;;;;;;16.30;4.68;;;;;;;;;;5044268;28;20037;-76
2022/01/17 14:26:30;;;;;;;16.70;3.53;;;;;;;;;;5044472;28;20063;-78
2022/01/17 14:28:56;;;;;;;17.45;2.85;;;;;;;;;;5044242;28;20029;-75
2022/01/17 14:31:22;;;;;;;18.90;3.00;;;;;;;;;;5042430;28;20055;-73
2022/01/17 14:33:54;;;;;;;13.32;2.22;;;;;;;;;;5044394;28;20043;-74
2022/01/17 14:36:20;;;;;;;17.27;2.30;;;;;;;;;;5060863;28;20048;-77
2022/01/17 14:38:50;;;;;;;15.95;2.78;;;;;;;;;;5057877;28;20116;-74
2022/01/17 14:41:19;;;;;;;16.23;3.15;;;;;;;;;;5043736;28;20044;-76
2022/01/17 14:43:52;;;;;;;19.73;2.90;;;;;;;;;;5043157;28;20052;-79
2022/01/17 14:46:18;;;;;;;21.45;3.85;;;;;;;;;;5039343;28;20037;-77
2022/01/17 14:48:49;;;;;;;19.25;3.95;;;;;;;;;;5057749;28;20040;-75
2022/01/17 14:51:19;;;;;;;19.17;3.30;;;;;;;;;;5044099;28;20076;-75
2022/01/17 14:53:46;;;;;;;22.38;3.42;;;;;;;;;;5042847;28;20044;-76
2022/01/17 15:01:49;;;;;;;15.82;3.15;;;;;;;;;;5060980;28;20079;-74
2022/01/17 15:04:15;;;;;;;26.95;3.65;;;;;;;;;;5060848;28;20496;-77